Time;durP1;ratioP1;P1;durP2;ratioP2;P2;SDS_P1;SDS_P2;PMS_P1;PMS_P2;Temp;Humidity;BMP_temperature;BMP_pressure;BME280_temperature;BME280_humidity;BME280_pressure;Samples;Min_cycle;Max_cycle;Signal;HPM_P1;HPM_P2
2023/10/11 00:01:11;;;;;;;7.55;2.40;;;;;;;;;;5166796;27;20022;-71
2023/10/11 00:03:58;;;;;;;7.88;2.30;;;;;;;;;;5162768;27;20029;-71
2023/10/11 00:06:47;;;;;;;10.60;2.75;;;;;;;;;;5161376;27;20025;-71
2023/10/11 00:09:38;;;;;;;7.75;2.30;;;;;;;;;;5177343;27;20025;-71
2023/10/11 00:12:24;;;;;;;5.28;2.00;;;;;;;;;;5176535;27;20036;-71
2023/10/11 00:15:10;;;;;;;9.25;2.50;;;;;;;;;;5177101;27;20026;-71
2023/10/11 00:17:56;;;;;;;5.85;2.30;;;;;;;;;;5176946;27;20041;-71
2023/10/11 00:23:27;;;;;;;9.02;2.50;;;;;;;;;;5177425;27;20019;-71
2023/10/11 00:26:17;;;;;;;4.80;2.42;;;;;;;;;;5176956;27;20026;-71
2023/10/11 00:29:04;;;;;;;7.18;2.40;;;;;;;;;;5162553;27;20011;-71
2023/10/11 00:31:53;;;;;;;7.10;2.30;;;;;;;;;;5161615;27;20355;-70
2023/10/11 00:34:38;;;;;;;6.78;2.30;;;;;;;;;;5176870;27;20462;-71
2023/10/11 00:37:25;;;;;;;4.72;2.20;;;;;;;;;;5176261;27;20022;-72
2023/10/11 00:40:13;;;;;;;3.78;2.38;;;;;;;;;;5162020;27;20463;-72
2023/10/11 00:42:59;;;;;;;5.50;2.25;;;;;;;;;;5176387;27;20033;-71
2023/10/11 00:45:45;;;;;;;5.85;1.90;;;;;;;;;;5176101;27;20045;-71
2023/10/11 00:48:31;;;;;;;8.10;2.05;;;;;;;;;;5161729;27;20421;-72
2023/10/11 00:51:18;;;;;;;5.15;1.95;;;;;;;;;;5176162;27;20470;-72
2023/10/11 00:54:07;;;;;;;5.45;2.33;;;;;;;;;;5176198;27;20026;-72
2023/10/11 00:56:53;;;;;;;5.85;2.25;;;;;;;;;;5160759;27;20447;-72
2023/10/11 00:59:39;;;;;;;6.68;2.00;;;;;;;;;;5175263;27;20030;-71
2023/10/11 01:02:27;;;;;;;5.75;2.20;;;;;;;;;;5175995;27;20014;-72
2023/10/11 01:05:13;;;;;;;3.90;2.08;;;;;;;;;;5175209;27;20025;-71
2023/10/11 01:07:59;;;;;;;6.40;2.40;;;;;;;;;;5161356;27;20105;-71
2023/10/11 01:10:45;;;;;;;10.02;2.47;;;;;;;;;;5159883;27;20049;-72
2023/10/11 01:13:31;;;;;;;5.78;2.35;;;;;;;;;;5176181;27;20018;-72
2023/10/11 01:16:17;;;;;;;10.30;2.25;;;;;;;;;;5175784;27;20014;-71
2023/10/11 01:19:08;;;;;;;7.78;1.98;;;;;;;;;;5160593;27;20018;-71
2023/10/11 01:21:59;;;;;;;5.28;2.10;;;;;;;;;;5161149;27;20010;-71
2023/10/11 01:24:48;;;;;;;5.88;2.38;;;;;;;;;;5178010;27;20452;-71
2023/10/11 01:27:36;;;;;;;3.75;2.17;;;;;;;;;;5177443;27;20033;-72
2023/10/11 01:30:26;;;;;;;5.57;2.20;;;;;;;;;;5176988;27;20433;-71
2023/10/11 01:33:12;;;;;;;4.32;2.30;;;;;;;;;;5176816;27;20031;-72
2023/10/11 01:35:58;;;;;;;7.28;2.13;;;;;;;;;;5176760;27;20022;-72
2023/10/11 01:38:46;;;;;;;6.75;2.30;;;;;;;;;;5161832;27;20026;-72
2023/10/11 01:41:32;;;;;;;4.82;2.10;;;;;;;;;;5176201;27;20109;-71
2023/10/11 01:44:18;;;;;;;9.50;2.40;;;;;;;;;;5175549;27;20014;-72
2023/10/11 01:47:05;;;;;;;4.85;2.40;;;;;;;;;;5161411;27;20082;-72
2023/10/11 01:49:52;;;;;;;7.50;2.40;;;;;;;;;;5160511;27;20052;-72
2023/10/11 01:52:38;;;;;;;8.38;2.28;;;;;;;;;;5176050;27;20026;-71
2023/10/11 01:55:23;;;;;;;5.07;2.30;;;;;;;;;;5175932;27;20014;-72
2023/10/11 01:58:12;;;;;;;4.72;2.20;;;;;;;;;;5175675;27;20050;-71
2023/10/11 02:00:58;;;;;;;7.00;2.92;;;;;;;;;;5159953;27;20090;-72
2023/10/11 02:03:45;;;;;;;6.30;2.50;;;;;;;;;;5175318;27;20037;-71
2023/10/11 02:06:34;;;;;;;10.85;2.65;;;;;;;;;;5176180;27;20101;-71
2023/10/11 02:09:26;;;;;;;6.30;2.45;;;;;;;;;;5160087;27;20031;-71
2023/10/11 02:12:11;;;;;;;5.43;2.75;;;;;;;;;;5160281;27;20036;-72
2023/10/11 02:14:57;;;;;;;6.70;2.33;;;;;;;;;;5175215;27;20029;-71
2023/10/11 02:17:47;;;;;;;5.22;2.63;;;;;;;;;;5175163;27;20023;-72
2023/10/11 02:20:32;;;;;;;11.25;3.05;;;;;;;;;;5175438;27;20090;-72
2023/10/11 02:23:18;;;;;;;10.95;3.22;;;;;;;;;;5174852;27;20049;-72
2023/10/11 02:26:04;;;;;;;8.27;3.30;;;;;;;;;;5160199;27;20014;-71
2023/10/11 02:28:51;;;;;;;7.95;2.67;;;;;;;;;;5160602;27;20399;-71
2023/10/11 02:31:38;;;;;;;9.60;3.08;;;;;;;;;;5174911;27;20081;-72
2023/10/11 02:34:24;;;;;;;10.15;3.10;;;;;;;;;;5160856;27;20017;-71
2023/10/11 02:37:12;;;;;;;6.57;2.78;;;;;;;;;;5179120;27;20022;-71
2023/10/11 02:39:59;;;;;;;10.98;3.50;;;;;;;;;;5163312;27;20448;-72
2023/10/11 02:42:46;;;;;;;6.00;2.95;;;;;;;;;;5179980;27;20022;-71
2023/10/11 02:45:33;;;;;;;8.63;3.15;;;;;;;;;;5164090;27;20018;-71
2023/10/11 02:48:19;;;;;;;6.10;2.85;;;;;;;;;;5178737;27;20030;-71
2023/10/11 02:51:13;;;;;;;9.48;3.17;;;;;;;;;;5179234;27;20030;-71
2023/10/11 02:54:03;;;;;;;5.63;2.83;;;;;;;;;;5178518;27;20025;-70
2023/10/11 02:56:51;;;;;;;7.15;3.25;;;;;;;;;;5178448;27;20375;-72
2023/10/11 02:59:37;;;;;;;7.03;3.10;;;;;;;;;;5177912;27;20443;-72
2023/10/11 03:02:29;;;;;;;7.65;2.75;;;;;;;;;;5163383;27;20357;-72
2023/10/11 03:05:14;;;;;;;6.28;2.60;;;;;;;;;;5163779;27;20010;-72
2023/10/11 03:08:16;;;;;;;7.00;2.80;;;;;;;;;;5177998;27;20050;-72
2023/10/11 03:11:04;;;;;;;4.97;2.50;;;;;;;;;;5162609;27;20030;-72
2023/10/11 03:13:52;;;;;;;6.45;2.80;;;;;;;;;;5162341;27;20022;-72
2023/10/11 03:16:42;;;;;;;3.25;2.17;;;;;;;;;;5161878;27;20440;-71
2023/10/11 03:19:27;;;;;;;5.65;2.75;;;;;;;;;;5163275;27;20029;-71
2023/10/11 03:22:20;;;;;;;7.38;3.05;;;;;;;;;;5177931;27;20044;-71
2023/10/11 03:25:13;;;;;;;4.10;2.50;;;;;;;;;;5162214;27;20074;-72
2023/10/11 03:27:58;;;;;;;6.78;2.40;;;;;;;;;;5178120;27;20443;-71
2023/10/11 03:30:44;;;;;;;6.10;2.40;;;;;;;;;;5163826;27;20454;-72
2023/10/11 03:33:30;;;;;;;5.80;2.33;;;;;;;;;;5177538;27;20026;-73
2023/10/11 03:36:20;;;;;;;6.13;2.40;;;;;;;;;;5177244;27;20371;-72
2023/10/11 03:39:09;;;;;;;6.88;3.10;;;;;;;;;;5163412;27;20158;-72
2023/10/11 03:42:07;;;;;;;6.07;2.83;;;;;;;;;;5177357;27;20075;-73
2023/10/11 03:44:53;;;;;;;5.28;2.55;;;;;;;;;;5177914;27;20114;-72
2023/10/11 03:47:38;;;;;;;7.95;3.33;;;;;;;;;;5176612;27;20068;-71
2023/10/11 03:50:34;;;;;;;10.10;3.30;;;;;;;;;;5162092;27;20056;-71
2023/10/11 03:53:20;;;;;;;7.85;3.42;;;;;;;;;;5177991;27;20053;-72
2023/10/11 03:56:06;;;;;;;10.00;3.83;;;;;;;;;;5149112;27;20022;-71
2023/10/11 03:58:51;;;;;;;9.45;3.20;;;;;;;;;;5176558;27;20414;-73
2023/10/11 04:01:37;;;;;;;6.05;3.40;;;;;;;;;;5177094;27;20496;-72
2023/10/11 04:04:23;;;;;;;9.50;2.95;;;;;;;;;;5177536;27;20078;-73
2023/10/11 04:07:13;;;;;;;8.98;3.60;;;;;;;;;;5177848;27;20021;-72
2023/10/11 04:10:04;;;;;;;12.27;3.42;;;;;;;;;;5177922;27;20361;-71
2023/10/11 04:12:51;;;;;;;12.73;3.60;;;;;;;;;;5162318;27;20026;-72
2023/10/11 04:15:40;;;;;;;10.75;3.67;;;;;;;;;;5161985;27;20117;-71
2023/10/11 04:21:26;;;;;;;9.00;3.67;;;;;;;;;;5176764;27;20455;-71
2023/10/11 04:24:13;;;;;;;8.15;3.00;;;;;;;;;;5177261;27;20014;-72
2023/10/11 04:27:45;;;;;;;8.35;2.83;;;;;;;;;;5176191;27;20359;-71
2023/10/11 04:30:17;;;;;;;8.77;3.00;;;;;;;;;;5176850;27;20026;-71
2023/10/11 04:33:03;;;;;;;11.95;3.55;;;;;;;;;;5176270;27;20033;-72
2023/10/11 04:35:58;;;;;;;20.13;4.03;;;;;;;;;;5176640;27;20022;-72
2023/10/11 04:38:47;;;;;;;13.35;3.55;;;;;;;;;;5176957;27;20047;-72
2023/10/11 04:41:38;;;;;;;7.93;3.15;;;;;;;;;;5176920;27;20046;-72
2023/10/11 04:44:30;;;;;;;8.60;3.15;;;;;;;;;;5176012;27;20014;-71
2023/10/11 04:47:17;;;;;;;8.55;3.20;;;;;;;;;;5176300;27;20041;-72
2023/10/11 04:50:11;;;;;;;9.70;3.00;;;;;;;;;;5175653;27;20227;-72
2023/10/11 04:52:58;;;;;;;11.80;3.28;;;;;;;;;;5160152;27;20022;-72
2023/10/11 04:55:59;;;;;;;8.30;2.92;;;;;;;;;;5176213;27;20105;-72
2023/10/11 04:58:51;;;;;;;8.35;3.03;;;;;;;;;;5175204;27;20018;-73
2023/10/11 05:04:33;;;;;;;9.88;3.55;;;;;;;;;;5175748;27;20010;-72
2023/10/11 05:07:22;;;;;;;12.75;3.78;;;;;;;;;;5161461;27;20021;-72
2023/10/11 05:13:36;;;;;;;7.18;2.95;;;;;;;;;;5092638;28;20473;-72
2023/10/11 05:16:22;;;;;;;7.53;3.30;;;;;;;;;;5162361;27;20097;-71
2023/10/11 05:19:07;;;;;;;11.95;3.20;;;;;;;;;;5161184;27;20143;-72
2023/10/11 05:21:53;;;;;;;8.82;3.55;;;;;;;;;;5161200;27;20079;-72
2023/10/11 05:25:12;;;;;;;10.95;3.30;;;;;;;;;;5161059;27;20026;-72
2023/10/11 05:28:07;;;;;;;9.43;3.70;;;;;;;;;;5176431;27;20396;-72
2023/10/11 05:34:12;;;;;;;14.05;4.30;;;;;;;;;;5175070;27;20466;-70
2023/10/11 05:52:19;;;;;;;13.30;3.85;;;;;;;;;;5176030;27;20046;-72
2023/10/11 05:55:06;;;;;;;8.90;3.75;;;;;;;;;;5174799;27;20021;-71
2023/10/11 05:57:52;;;;;;;18.27;4.20;;;;;;;;;;5175086;27;20063;-72
2023/10/11 06:00:39;;;;;;;14.45;3.67;;;;;;;;;;5174861;27;20022;-73
2023/10/11 06:03:24;;;;;;;10.82;3.78;;;;;;;;;;5175188;27;20022;-73
2023/10/11 06:09:17;;;;;;;8.95;3.53;;;;;;;;;;5175961;27;20018;-72
2023/10/11 06:12:04;;;;;;;11.75;3.40;;;;;;;;;;5180194;27;20492;-73
2023/10/11 06:14:53;;;;;;;11.65;3.83;;;;;;;;;;5179587;27;20404;-71
2023/10/11 06:17:42;;;;;;;9.80;3.60;;;;;;;;;;5180738;27;20058;-71
2023/10/11 06:20:27;;;;;;;14.23;3.88;;;;;;;;;;5179513;27;20101;-72
2023/10/11 06:23:13;;;;;;;14.43;3.65;;;;;;;;;;5179468;27;20023;-72
2023/10/11 06:25:59;;;;;;;10.13;3.20;;;;;;;;;;5179256;27;20109;-73
2023/10/11 06:28:45;;;;;;;11.45;3.22;;;;;;;;;;5178880;27;20093;-74
2023/10/11 06:31:34;;;;;;;11.40;3.25;;;;;;;;;;5178282;27;20031;-74
2023/10/11 06:34:32;;;;;;;11.27;3.22;;;;;;;;;;5180684;27;20018;-72
2023/10/11 06:37:24;;;;;;;9.88;3.30;;;;;;;;;;5178860;27;20026;-73
2023/10/11 06:40:13;;;;;;;6.47;3.10;;;;;;;;;;5163549;27;20344;-73
2023/10/11 06:42:59;;;;;;;11.80;3.40;;;;;;;;;;5178410;27;20018;-73
2023/10/11 06:45:44;;;;;;;9.05;3.65;;;;;;;;;;5178092;27;20029;-73
2023/10/11 06:48:30;;;;;;;8.70;2.97;;;;;;;;;;5165130;27;20045;-71
2023/10/11 06:51:16;;;;;;;12.43;3.13;;;;;;;;;;5183408;27;20034;-72
2023/10/11 06:54:01;;;;;;;14.65;3.28;;;;;;;;;;5179508;27;20083;-71
2023/10/11 06:56:50;;;;;;;6.20;3.13;;;;;;;;;;5178026;27;20053;-73
2023/10/11 06:59:38;;;;;;;14.25;4.80;;;;;;;;;;5178768;27;20101;-71
2023/10/11 07:02:34;;;;;;;12.70;4.20;;;;;;;;;;5162803;27;20028;-72
2023/10/11 07:05:20;;;;;;;12.65;4.18;;;;;;;;;;5178008;27;20014;-71
2023/10/11 07:08:08;;;;;;;12.82;4.43;;;;;;;;;;5178009;27;20021;-72
2023/10/11 07:13:56;;;;;;;9.65;4.38;;;;;;;;;;5178910;27;20454;-72
2023/10/11 07:16:42;;;;;;;8.98;4.55;;;;;;;;;;5176665;27;20181;-73
2023/10/11 07:19:28;;;;;;;10.10;3.80;;;;;;;;;;5178130;27;20022;-72
2023/10/11 07:22:18;;;;;;;8.50;3.47;;;;;;;;;;5179458;27;20411;-73
2023/10/11 07:25:36;;;;;;;8.23;3.53;;;;;;;;;;5177675;27;20026;-72
2023/10/11 07:28:11;;;;;;;14.23;3.78;;;;;;;;;;5178370;27;20029;-73
2023/10/11 07:30:57;;;;;;;11.45;3.33;;;;;;;;;;5177884;27;20409;-73
2023/10/11 07:33:43;;;;;;;9.55;3.10;;;;;;;;;;5177489;27;20459;-73
2023/10/11 07:36:29;;;;;;;14.13;3.63;;;;;;;;;;5177715;27;20499;-74
2023/10/11 07:42:18;;;;;;;10.00;3.55;;;;;;;;;;5178256;27;20006;-72
2023/10/11 07:45:12;;;;;;;10.02;3.40;;;;;;;;;;5178078;27;20014;-72
2023/10/11 07:47:58;;;;;;;14.05;3.15;;;;;;;;;;5177337;27;20049;-71
2023/10/11 07:50:46;;;;;;;15.95;3.80;;;;;;;;;;5162479;27;20440;-73
2023/10/11 07:53:32;;;;;;;9.38;3.28;;;;;;;;;;5178903;27;20033;-73
2023/10/11 07:56:20;;;;;;;12.05;3.60;;;;;;;;;;5162864;27;20157;-74
2023/10/11 07:59:09;;;;;;;13.63;3.15;;;;;;;;;;5177598;27;20105;-73
2023/10/11 08:01:59;;;;;;;10.98;3.58;;;;;;;;;;5178049;27;20018;-73
2023/10/11 08:04:48;;;;;;;12.20;3.40;;;;;;;;;;5148741;27;20416;-73
2023/10/11 08:07:37;;;;;;;12.15;3.95;;;;;;;;;;5163285;27;20113;-72
2023/10/11 08:10:29;;;;;;;18.00;4.22;;;;;;;;;;5177342;27;20018;-72
2023/10/11 08:13:23;;;;;;;12.93;3.55;;;;;;;;;;5177053;27;20101;-71
2023/10/11 08:16:17;;;;;;;11.30;3.70;;;;;;;;;;5178855;27;20018;-72
2023/10/11 08:19:04;;;;;;;11.60;3.60;;;;;;;;;;5177652;27;20482;-72
2023/10/11 08:21:54;;;;;;;15.65;3.65;;;;;;;;;;5178032;27;20023;-72
2023/10/11 08:24:49;;;;;;;9.90;3.40;;;;;;;;;;5176150;27;20044;-73
2023/10/11 08:27:35;;;;;;;9.57;3.85;;;;;;;;;;5176894;27;20015;-72
2023/10/11 08:30:23;;;;;;;12.52;4.35;;;;;;;;;;5176879;27;20029;-72
2023/10/11 08:33:09;;;;;;;16.00;3.70;;;;;;;;;;5176388;27;20022;-72
2023/10/11 08:35:55;;;;;;;14.48;4.07;;;;;;;;;;5177157;27;20033;-72
2023/10/11 08:38:41;;;;;;;8.60;3.50;;;;;;;;;;5176889;27;20022;-73
2023/10/11 08:41:30;;;;;;;10.95;3.83;;;;;;;;;;5161134;27;20101;-73
2023/10/11 08:44:20;;;;;;;12.55;3.40;;;;;;;;;;5175940;27;20022;-71
2023/10/11 08:47:06;;;;;;;18.95;4.40;;;;;;;;;;5176373;27;20026;-72
2023/10/11 08:49:53;;;;;;;13.35;3.67;;;;;;;;;;5176124;27;20048;-72
2023/10/11 08:52:39;;;;;;;14.10;3.70;;;;;;;;;;5175679;27;20449;-72
2023/10/11 08:55:25;;;;;;;10.48;3.40;;;;;;;;;;5176035;27;20022;-72
2023/10/11 08:58:23;;;;;;;11.95;3.25;;;;;;;;;;5176060;27;20014;-72
2023/10/11 09:01:09;;;;;;;8.65;3.00;;;;;;;;;;5175448;27;20022;-73
2023/10/11 09:04:05;;;;;;;14.57;3.17;;;;;;;;;;5175906;27;20043;-72
2023/10/11 09:06:55;;;;;;;11.00;3.03;;;;;;;;;;5176568;27;20510;-73
2023/10/11 09:09:40;;;;;;;11.77;3.42;;;;;;;;;;5175643;27;20029;-72
2023/10/11 09:12:27;;;;;;;9.80;2.80;;;;;;;;;;5176085;27;20045;-72
2023/10/11 09:15:14;;;;;;;11.05;3.03;;;;;;;;;;5176500;27;20014;-72
2023/10/11 09:18:12;;;;;;;6.57;2.65;;;;;;;;;;5175883;27;20022;-72
2023/10/11 09:21:10;;;;;;;11.38;3.20;;;;;;;;;;5175401;27;20093;-72
2023/10/11 09:23:57;;;;;;;10.80;2.60;;;;;;;;;;5175643;27;20132;-73
2023/10/11 09:26:42;;;;;;;6.53;3.10;;;;;;;;;;5176582;27;20043;-72
2023/10/11 09:29:30;;;;;;;14.45;4.25;;;;;;;;;;5176331;27;20109;-73
2023/10/11 09:32:19;;;;;;;5.15;2.60;;;;;;;;;;5176151;27;20360;-73
2023/10/11 09:35:23;;;;;;;7.30;2.85;;;;;;;;;;5176264;27;20018;-73
2023/10/11 09:38:09;;;;;;;6.28;2.63;;;;;;;;;;5176115;27;20026;-74
2023/10/11 09:40:55;;;;;;;8.80;2.83;;;;;;;;;;5175525;27;20090;-73
2023/10/11 09:43:43;;;;;;;11.77;2.78;;;;;;;;;;5177014;27;20358;-71
2023/10/11 09:46:29;;;;;;;8.43;2.70;;;;;;;;;;5181074;27;20022;-72
2023/10/11 09:49:15;;;;;;;9.18;2.75;;;;;;;;;;5180610;27;20049;-72
2023/10/11 09:52:07;;;;;;;7.85;3.20;;;;;;;;;;5179426;27;20018;-70
2023/10/11 09:54:53;;;;;;;12.45;5.35;;;;;;;;;;5180156;27;20048;-72
2023/10/11 09:57:42;;;;;;;11.85;3.33;;;;;;;;;;5179203;27;20044;-71
2023/10/11 10:00:43;;;;;;;5.22;2.67;;;;;;;;;;5179826;27;20589;-72
2023/10/11 10:03:29;;;;;;;5.38;2.42;;;;;;;;;;5164317;27;20030;-71
2023/10/11 10:06:24;;;;;;;12.23;2.83;;;;;;;;;;5164423;27;20030;-72
2023/10/11 10:09:18;;;;;;;10.38;2.55;;;;;;;;;;5178882;27;20032;-71
2023/10/11 10:12:11;;;;;;;11.35;2.55;;;;;;;;;;5165061;27;20022;-71
2023/10/11 10:15:07;;;;;;;8.00;2.53;;;;;;;;;;5179751;27;20014;-71
2023/10/11 10:18:03;;;;;;;11.07;2.75;;;;;;;;;;5179386;27;20341;-71
2023/10/11 10:21:05;;;;;;;6.70;2.58;;;;;;;;;;5178256;27;20087;-72
2023/10/11 10:23:51;;;;;;;6.70;2.15;;;;;;;;;;5164767;27;20076;-71
2023/10/11 10:26:38;;;;;;;9.05;2.42;;;;;;;;;;5164015;27;20106;-71
2023/10/11 10:29:43;;;;;;;8.07;2.67;;;;;;;;;;5162819;27;20023;-72
2023/10/11 10:32:29;;;;;;;10.18;2.70;;;;;;;;;;5179061;27;20006;-72
2023/10/11 10:35:18;;;;;;;6.32;2.50;;;;;;;;;;5179225;27;20022;-72
2023/10/11 10:38:09;;;;;;;7.32;2.00;;;;;;;;;;5163913;27;20424;-71
2023/10/11 10:41:13;;;;;;;8.75;2.60;;;;;;;;;;5163652;27;20428;-73
2023/10/11 10:44:02;;;;;;;9.07;2.60;;;;;;;;;;5163694;27;20018;-71
2023/10/11 10:46:49;;;;;;;6.93;2.50;;;;;;;;;;5178714;27;20072;-71
2023/10/11 10:49:42;;;;;;;7.72;2.65;;;;;;;;;;5164272;27;20053;-72
2023/10/11 10:52:30;;;;;;;5.35;2.13;;;;;;;;;;5179262;27;20117;-72
2023/10/11 10:55:16;;;;;;;9.43;2.80;;;;;;;;;;5164160;27;20109;-71
2023/10/11 10:58:04;;;;;;;8.05;2.55;;;;;;;;;;5177852;27;20025;-72
2023/10/11 11:00:53;;;;;;;8.82;3.15;;;;;;;;;;5178721;27;20358;-71
2023/10/11 11:03:41;;;;;;;20.27;5.20;;;;;;;;;;5178590;27;20018;-72
2023/10/11 11:06:36;;;;;;;13.77;2.75;;;;;;;;;;5178163;27;20035;-72
2023/10/11 11:09:29;;;;;;;6.82;2.90;;;;;;;;;;5164272;27;20014;-72
2023/10/11 11:12:16;;;;;;;6.28;2.40;;;;;;;;;;5178121;27;20079;-71
2023/10/11 11:15:08;;;;;;;6.47;2.63;;;;;;;;;;5178433;27;20022;-72
2023/10/11 11:17:54;;;;;;;7.57;3.13;;;;;;;;;;5178173;27;20097;-70
2023/10/11 11:20:40;;;;;;;5.20;2.60;;;;;;;;;;5163361;27;20022;-71
2023/10/11 11:23:27;;;;;;;5.40;2.30;;;;;;;;;;5163667;27;20014;-72
2023/10/11 11:26:15;;;;;;;7.65;3.42;;;;;;;;;;5178511;27;20033;-72
2023/10/11 11:29:08;;;;;;;5.97;2.40;;;;;;;;;;5163970;27;20060;-72
2023/10/11 11:31:55;;;;;;;5.50;2.20;;;;;;;;;;5178159;27;20459;-72
2023/10/11 11:35:02;;;;;;;5.53;2.08;;;;;;;;;;5162803;27;20026;-72
2023/10/11 11:38:02;;;;;;;6.32;2.20;;;;;;;;;;5163284;27;20026;-72
2023/10/11 11:40:51;;;;;;;8.25;2.33;;;;;;;;;;5178401;27;20186;-72
2023/10/11 11:43:38;;;;;;;5.40;2.30;;;;;;;;;;5162448;27;20014;-72
2023/10/11 11:46:29;;;;;;;5.05;2.20;;;;;;;;;;5178144;27;20105;-72
2023/10/11 11:49:22;;;;;;;6.03;2.63;;;;;;;;;;5178075;27;20123;-71
2023/10/11 11:52:07;;;;;;;11.20;2.67;;;;;;;;;;5162030;27;20041;-72
2023/10/11 11:54:54;;;;;;;9.65;3.10;;;;;;;;;;5162247;27;20070;-72
2023/10/11 11:57:40;;;;;;;11.32;3.05;;;;;;;;;;5163024;27;20389;-72
2023/10/11 12:03:11;;;;;;;8.73;2.58;;;;;;;;;;5177420;27;20006;-72
2023/10/11 12:05:57;;;;;;;8.02;2.30;;;;;;;;;;5176766;27;20077;-72
2023/10/11 12:08:44;;;;;;;7.00;2.28;;;;;;;;;;5176724;27;20018;-72
2023/10/11 12:11:31;;;;;;;9.25;2.72;;;;;;;;;;5177454;27;20466;-72
2023/10/11 12:14:16;;;;;;;5.97;2.30;;;;;;;;;;5161867;27;20022;-72
2023/10/11 12:17:09;;;;;;;8.70;2.40;;;;;;;;;;5176764;27;20056;-72
2023/10/11 12:19:54;;;;;;;5.20;2.60;;;;;;;;;;5161706;27;20011;-72
2023/10/11 12:22:42;;;;;;;6.80;2.28;;;;;;;;;;5176919;27;20424;-72
2023/10/11 12:25:32;;;;;;;8.82;2.30;;;;;;;;;;5177318;27;20022;-72
2023/10/11 12:28:18;;;;;;;11.45;3.40;;;;;;;;;;5160359;27;20030;-72
2023/10/11 12:31:04;;;;;;;9.30;2.60;;;;;;;;;;5176934;27;20102;-70
2023/10/11 12:33:49;;;;;;;5.00;2.30;;;;;;;;;;5177081;27;20458;-72
2023/10/11 12:36:39;;;;;;;8.88;2.55;;;;;;;;;;5162440;27;20456;-73
2023/10/11 12:39:29;;;;;;;4.78;2.42;;;;;;;;;;5163232;27;20022;-73
2023/10/11 12:42:15;;;;;;;7.47;3.63;;;;;;;;;;5177943;27;20060;-73
2023/10/11 12:45:01;;;;;;;7.57;2.85;;;;;;;;;;5162100;27;20046;-72
2023/10/11 12:47:46;;;;;;;6.03;1.83;;;;;;;;;;5161692;27;20030;-72
2023/10/11 12:50:36;;;;;;;7.50;2.10;;;;;;;;;;5159590;27;20073;-71
2023/10/11 12:53:22;;;;;;;14.85;2.80;;;;;;;;;;5176035;27;20037;-73
2023/10/11 12:56:10;;;;;;;5.97;2.10;;;;;;;;;;5160814;27;20112;-72
2023/10/11 12:58:57;;;;;;;5.03;2.28;;;;;;;;;;5176016;27;20022;-72
2023/10/11 13:01:50;;;;;;;6.70;2.58;;;;;;;;;;5159991;27;20029;-72
2023/10/11 13:04:37;;;;;;;5.10;2.20;;;;;;;;;;5176087;27;20506;-72
2023/10/11 13:07:26;;;;;;;6.07;2.20;;;;;;;;;;5162122;27;20026;-71
2023/10/11 13:10:12;;;;;;;7.75;2.20;;;;;;;;;;5175476;27;20048;-72
2023/10/11 13:12:59;;;;;;;6.50;2.47;;;;;;;;;;5175644;27;20030;-73
2023/10/11 13:16:00;;;;;;;6.28;2.60;;;;;;;;;;5175913;27;20041;-73
2023/10/11 13:18:46;;;;;;;4.93;2.40;;;;;;;;;;5176037;27;20063;-73
2023/10/11 13:21:33;;;;;;;4.03;2.33;;;;;;;;;;5175758;27;20049;-72
2023/10/11 13:24:23;;;;;;;4.82;2.10;;;;;;;;;;5174877;27;20098;-73
2023/10/11 13:27:09;;;;;;;8.55;2.35;;;;;;;;;;5176562;27;20014;-72
2023/10/11 13:30:01;;;;;;;6.97;2.42;;;;;;;;;;5162040;27;20431;-72
2023/10/11 13:32:47;;;;;;;7.25;2.10;;;;;;;;;;5161991;27;20014;-72
2023/10/11 13:35:35;;;;;;;3.25;1.80;;;;;;;;;;5175811;27;20023;-73
2023/10/11 13:38:21;;;;;;;4.30;2.22;;;;;;;;;;5176253;27;20049;-73
2023/10/11 13:41:11;;;;;;;6.47;2.45;;;;;;;;;;5176022;27;20090;-72
2023/10/11 13:43:57;;;;;;;9.52;2.65;;;;;;;;;;5160754;27;20044;-72
2023/10/11 13:46:43;;;;;;;6.63;2.17;;;;;;;;;;5175622;27;20014;-72
2023/10/11 13:49:32;;;;;;;9.15;2.25;;;;;;;;;;5175701;27;20043;-73
2023/10/11 13:52:20;;;;;;;8.80;2.80;;;;;;;;;;5176953;27;20046;-73
2023/10/11 13:55:11;;;;;;;8.57;2.90;;;;;;;;;;5176132;27;20359;-73
2023/10/11 13:57:57;;;;;;;5.10;2.47;;;;;;;;;;5175003;27;20010;-73
2023/10/11 14:06:21;;;;;;;6.28;2.45;;;;;;;;;;5175706;27;20010;-73
2023/10/11 14:09:16;;;;;;;13.95;2.92;;;;;;;;;;5174389;27;20019;-72
2023/10/11 14:12:11;;;;;;;6.43;2.60;;;;;;;;;;5175022;27;20045;-72
2023/10/11 14:14:57;;;;;;;3.17;2.08;;;;;;;;;;5174447;27;20452;-73
2023/10/11 14:17:44;;;;;;;16.88;2.53;;;;;;;;;;5161038;27;20018;-72
2023/10/11 14:20:32;;;;;;;7.10;2.15;;;;;;;;;;5175005;27;20023;-72
2023/10/11 14:23:17;;;;;;;10.52;2.40;;;;;;;;;;5159828;27;20014;-72
2023/10/11 14:26:05;;;;;;;10.52;2.70;;;;;;;;;;5175609;27;20024;-74
2023/10/11 14:28:52;;;;;;;5.18;2.35;;;;;;;;;;5175686;27;20344;-74
2023/10/11 14:31:39;;;;;;;5.88;2.22;;;;;;;;;;5162076;27;20065;-72
2023/10/11 14:34:24;;;;;;;5.25;2.88;;;;;;;;;;5164466;27;20022;-73
2023/10/11 14:37:10;;;;;;;5.78;3.28;;;;;;;;;;5178720;27;20033;-74
2023/10/11 14:39:55;;;;;;;8.30;2.60;;;;;;;;;;5179185;27;20014;-72
2023/10/11 14:42:42;;;;;;;5.00;2.30;;;;;;;;;;5178736;27;20025;-71
2023/10/11 14:45:27;;;;;;;7.50;2.47;;;;;;;;;;5179632;27;20452;-73
2023/10/11 14:48:13;;;;;;;6.18;2.33;;;;;;;;;;5178833;27;20323;-73
2023/10/11 14:50:58;;;;;;;4.03;2.28;;;;;;;;;;5163579;27;20056;-72
2023/10/11 14:53:45;;;;;;;8.60;2.67;;;;;;;;;;5178672;27;20090;-73
2023/10/11 14:56:31;;;;;;;11.90;2.80;;;;;;;;;;5178583;27;20022;-73
2023/10/11 14:59:17;;;;;;;22.52;4.15;;;;;;;;;;5178848;27;20030;-73
2023/10/11 15:02:02;;;;;;;11.90;2.75;;;;;;;;;;5178512;27;20040;-73
2023/10/11 15:04:50;;;;;;;11.13;2.80;;;;;;;;;;5178401;27;20075;-70
2023/10/11 15:07:40;;;;;;;12.30;2.50;;;;;;;;;;5178299;27;20018;-69
2023/10/11 15:10:26;;;;;;;7.25;2.47;;;;;;;;;;5178673;27;20022;-71
2023/10/11 15:13:12;;;;;;;9.63;3.40;;;;;;;;;;5163043;27;20025;-72
2023/10/11 15:15:57;;;;;;;8.27;3.60;;;;;;;;;;5179016;27;20026;-71
2023/10/11 15:18:43;;;;;;;10.70;2.92;;;;;;;;;;5178360;27;20018;-71
2023/10/11 15:21:28;;;;;;;8.63;2.72;;;;;;;;;;5161673;27;20359;-71
2023/10/11 15:24:15;;;;;;;9.15;3.20;;;;;;;;;;5178673;27;20101;-70
2023/10/11 15:27:02;;;;;;;10.10;2.75;;;;;;;;;;5178249;27;20065;-71
2023/10/11 15:29:48;;;;;;;9.90;3.13;;;;;;;;;;5177646;27;20470;-71
2023/10/11 15:32:34;;;;;;;6.10;3.00;;;;;;;;;;5163130;27;20094;-71
2023/10/11 15:35:20;;;;;;;8.40;3.85;;;;;;;;;;5161901;27;20018;-71
2023/10/11 15:38:06;;;;;;;6.60;2.97;;;;;;;;;;5177956;27;20018;-71
2023/10/11 15:40:57;;;;;;;5.72;2.90;;;;;;;;;;5178147;27;20077;-70
2023/10/11 15:43:43;;;;;;;5.38;2.75;;;;;;;;;;5177884;27;20393;-71
2023/10/11 15:46:28;;;;;;;10.32;2.65;;;;;;;;;;5177250;27;20355;-70
2023/10/11 15:49:14;;;;;;;5.35;2.53;;;;;;;;;;5177127;27;20042;-70
2023/10/11 15:52:00;;;;;;;8.90;2.75;;;;;;;;;;5177313;27;20082;-71
2023/10/11 15:54:46;;;;;;;6.90;2.55;;;;;;;;;;5161853;27;20038;-70
2023/10/11 15:57:31;;;;;;;6.50;2.88;;;;;;;;;;5163334;27;20170;-71
2023/10/11 16:00:19;;;;;;;5.18;2.40;;;;;;;;;;5177393;27;20025;-70
2023/10/11 16:03:09;;;;;;;10.25;2.97;;;;;;;;;;5177878;27;20022;-70
2023/10/11 16:05:57;;;;;;;8.35;2.72;;;;;;;;;;5162224;27;20011;-71
2023/10/11 16:08:43;;;;;;;7.07;2.97;;;;;;;;;;5176542;27;20109;-70
2023/10/11 16:11:30;;;;;;;8.30;3.20;;;;;;;;;;5162282;27;20018;-70
2023/10/11 16:14:16;;;;;;;11.90;4.40;;;;;;;;;;5177461;27;20019;-72
2023/10/11 16:17:02;;;;;;;11.32;4.63;;;;;;;;;;5177087;27;20063;-70
2023/10/11 16:19:47;;;;;;;13.48;5.93;;;;;;;;;;5176593;27;20093;-70
2023/10/11 16:22:37;;;;;;;18.33;7.15;;;;;;;;;;5176527;27;20014;-70
2023/10/11 16:25:23;;;;;;;20.88;7.90;;;;;;;;;;5162832;27;20431;-70
2023/10/11 16:28:09;;;;;;;20.95;8.52;;;;;;;;;;5177708;27;20057;-70
2023/10/11 16:30:56;;;;;;;25.13;9.65;;;;;;;;;;5176930;27;20451;-70
2023/10/11 16:33:41;;;;;;;28.23;11.10;;;;;;;;;;5177256;27;20077;-71
2023/10/11 16:36:27;;;;;;;22.77;7.03;;;;;;;;;;5161589;27;20423;-70
2023/10/11 16:39:16;;;;;;;22.42;7.30;;;;;;;;;;5176820;27;20033;-70
2023/10/11 16:42:02;;;;;;;20.73;6.95;;;;;;;;;;5176974;27;20436;-70
2023/10/11 16:44:48;;;;;;;20.92;7.32;;;;;;;;;;5176508;27;20057;-71
2023/10/11 16:47:36;;;;;;;22.05;7.60;;;;;;;;;;5160932;27;20014;-70
2023/10/11 16:50:22;;;;;;;19.48;6.80;;;;;;;;;;5175836;27;20065;-71
2023/10/11 16:53:08;;;;;;;15.30;6.60;;;;;;;;;;5175365;27;20018;-70
2023/10/11 16:55:53;;;;;;;17.35;7.28;;;;;;;;;;5161277;27;20093;-70
2023/10/11 16:58:41;;;;;;;18.45;7.35;;;;;;;;;;5161602;27;20026;-71
2023/10/11 17:01:26;;;;;;;22.83;7.10;;;;;;;;;;5176717;27;20026;-71
2023/10/11 17:04:14;;;;;;;32.08;8.43;;;;;;;;;;5176901;27;20049;-71
2023/10/11 17:07:00;;;;;;;19.50;8.25;;;;;;;;;;5161260;27;20029;-70
2023/10/11 17:09:48;;;;;;;22.65;9.05;;;;;;;;;;5159991;27;20037;-70
2023/10/11 17:12:35;;;;;;;22.30;8.43;;;;;;;;;;5175746;27;20022;-69
2023/10/11 17:15:24;;;;;;;21.17;9.77;;;;;;;;;;5176700;27;20393;-69
2023/10/11 17:18:09;;;;;;;28.55;9.80;;;;;;;;;;5176345;27;20022;-69
2023/10/11 17:20:58;;;;;;;16.30;8.82;;;;;;;;;;5160424;27;20025;-71
2023/10/11 17:23:44;;;;;;;19.52;7.38;;;;;;;;;;5176196;27;20021;-70
2023/10/11 17:26:32;;;;;;;17.15;6.82;;;;;;;;;;5176460;27;20031;-74
2023/10/11 17:29:18;;;;;;;17.70;7.57;;;;;;;;;;5161733;27;20018;-71
2023/10/11 17:32:04;;;;;;;15.27;6.63;;;;;;;;;;5175912;27;20019;-71